sensor_id;sensor_type;location;lat;lon;timestamp;P1;durP1;ratioP1;P2;durP2;ratioP2
19191;SDS011;9728;48.194;16.346;2023-07-13T00:18:56;0.80;;;0.80;;
19191;SDS011;9728;48.194;16.346;2023-07-13T00:24:02;1.00;;;0.85;;
19191;SDS011;9728;48.194;16.346;2023-07-13T00:29:07;1.92;;;0.80;;
19191;SDS011;9728;48.194;16.346;2023-07-13T00:34:10;1.23;;;1.00;;
19191;SDS011;9728;48.194;16.346;2023-07-13T00:39:14;1.38;;;0.85;;
19191;SDS011;9728;48.194;16.346;2023-07-13T00:44:19;0.90;;;0.80;;
19191;SDS011;9728;48.194;16.346;2023-07-13T00:49:25;1.50;;;0.60;;
19191;SDS011;9728;48.194;16.346;2023-07-13T00:54:32;1.25;;;0.70;;
19191;SDS011;9728;48.194;16.346;2023-07-13T00:59:42;1.73;;;0.70;;
19191;SDS011;9728;48.194;16.346;2023-07-13T01:04:48;1.15;;;0.93;;
19191;SDS011;9728;48.194;16.346;2023-07-13T01:09:52;1.67;;;0.70;;
19191;SDS011;9728;48.194;16.346;2023-07-13T01:14:58;0.75;;;0.75;;
19191;SDS011;9728;48.194;16.346;2023-07-13T01:20:03;0.98;;;0.75;;
19191;SDS011;9728;48.194;16.346;2023-07-13T01:25:09;0.65;;;0.65;;
19191;SDS011;9728;48.194;16.346;2023-07-13T01:30:13;0.70;;;0.70;;
19191;SDS011;9728;48.194;16.346;2023-07-13T01:35:16;1.15;;;0.80;;
19191;SDS011;9728;48.194;16.346;2023-07-13T01:40:21;0.70;;;0.70;;
19191;SDS011;9728;48.194;16.346;2023-07-13T01:45:25;1.02;;;0.70;;
19191;SDS011;9728;48.194;16.346;2023-07-13T01:50:29;1.10;;;0.80;;
19191;SDS011;9728;48.194;16.346;2023-07-13T01:55:34;1.88;;;0.90;;
19191;SDS011;9728;48.194;16.346;2023-07-13T02:00:38;0.77;;;0.50;;
19191;SDS011;9728;48.194;16.346;2023-07-13T02:05:42;1.40;;;0.63;;
19191;SDS011;9728;48.194;16.346;2023-07-13T02:10:47;0.98;;;0.52;;
19191;SDS011;9728;48.194;16.346;2023-07-13T02:15:50;0.60;;;0.60;;
19191;SDS011;9728;48.194;16.346;2023-07-13T02:20:54;1.70;;;0.70;;
19191;SDS011;9728;48.194;16.346;2023-07-13T02:26:01;0.80;;;0.80;;
19191;SDS011;9728;48.194;16.346;2023-07-13T02:31:07;0.70;;;0.70;;
19191;SDS011;9728;48.194;16.346;2023-07-13T02:36:12;1.10;;;0.65;;
19191;SDS011;9728;48.194;16.346;2023-07-13T02:41:20;0.60;;;0.60;;
19191;SDS011;9728;48.194;16.346;2023-07-13T02:46:24;1.13;;;0.80;;
19191;SDS011;9728;48.194;16.346;2023-07-13T02:51:30;0.80;;;0.80;;
19191;SDS011;9728;48.194;16.346;2023-07-13T02:56:37;1.08;;;0.90;;
19191;SDS011;9728;48.194;16.346;2023-07-13T03:01:41;0.88;;;0.77;;
19191;SDS011;9728;48.194;16.346;2023-07-13T03:06:45;0.82;;;0.75;;
19191;SDS011;9728;48.194;16.346;2023-07-13T03:11:53;0.82;;;0.70;;
19191;SDS011;9728;48.194;16.346;2023-07-13T03:17:03;1.92;;;1.00;;
19191;SDS011;9728;48.194;16.346;2023-07-13T03:22:11;0.80;;;0.70;;
19191;SDS011;9728;48.194;16.346;2023-07-13T03:27:18;0.65;;;0.60;;
19191;SDS011;9728;48.194;16.346;2023-07-13T03:32:23;0.70;;;0.70;;
19191;SDS011;9728;48.194;16.346;2023-07-13T03:37:27;2.15;;;0.90;;
19191;SDS011;9728;48.194;16.346;2023-07-13T03:42:33;1.00;;;0.80;;
19191;SDS011;9728;48.194;16.346;2023-07-13T03:47:36;0.70;;;0.70;;
19191;SDS011;9728;48.194;16.346;2023-07-13T03:52:40;0.60;;;0.60;;
19191;SDS011;9728;48.194;16.346;2023-07-13T03:57:45;0.88;;;0.65;;
19191;SDS011;9728;48.194;16.346;2023-07-13T04:02:50;0.95;;;0.85;;
19191;SDS011;9728;48.194;16.346;2023-07-13T04:07:53;1.13;;;0.80;;
19191;SDS011;9728;48.194;16.346;2023-07-13T04:13:01;1.23;;;0.90;;
19191;SDS011;9728;48.194;16.346;2023-07-13T04:18:04;1.50;;;0.70;;
19191;SDS011;9728;48.194;16.346;2023-07-13T04:23:08;1.48;;;0.90;;
19191;SDS011;9728;48.194;16.346;2023-07-13T04:28:13;2.35;;;0.80;;
19191;SDS011;9728;48.194;16.346;2023-07-13T04:33:16;1.13;;;0.73;;
19191;SDS011;9728;48.194;16.346;2023-07-13T04:38:24;1.15;;;0.90;;
19191;SDS011;9728;48.194;16.346;2023-07-13T04:43:31;1.83;;;0.90;;
19191;SDS011;9728;48.194;16.346;2023-07-13T04:48:35;1.45;;;0.88;;
19191;SDS011;9728;48.194;16.346;2023-07-13T04:53:39;1.73;;;0.75;;
19191;SDS011;9728;48.194;16.346;2023-07-13T04:58:44;0.93;;;0.80;;
19191;SDS011;9728;48.194;16.346;2023-07-13T05:03:47;1.02;;;0.70;;
19191;SDS011;9728;48.194;16.346;2023-07-13T05:08:51;1.25;;;0.80;;
19191;SDS011;9728;48.194;16.346;2023-07-13T05:13:56;1.15;;;1.00;;
19191;SDS011;9728;48.194;16.346;2023-07-13T05:18:59;1.27;;;0.75;;
19191;SDS011;9728;48.194;16.346;2023-07-13T05:24:03;0.77;;;0.77;;
19191;SDS011;9728;48.194;16.346;2023-07-13T05:29:26;1.60;;;1.15;;
19191;SDS011;9728;48.194;16.346;2023-07-13T05:34:30;1.20;;;0.80;;
19191;SDS011;9728;48.194;16.346;2023-07-13T05:39:33;1.13;;;0.90;;
19191;SDS011;9728;48.194;16.346;2023-07-13T05:44:38;0.80;;;0.80;;
19191;SDS011;9728;48.194;16.346;2023-07-13T05:49:42;1.23;;;0.95;;
19191;SDS011;9728;48.194;16.346;2023-07-13T05:54:45;1.05;;;0.80;;
19191;SDS011;9728;48.194;16.346;2023-07-13T05:59:50;2.35;;;0.80;;
19191;SDS011;9728;48.194;16.346;2023-07-13T06:04:54;1.58;;;1.00;;
19191;SDS011;9728;48.194;16.346;2023-07-13T06:09:57;1.58;;;0.80;;
19191;SDS011;9728;48.194;16.346;2023-07-13T06:15:03;1.00;;;0.70;;
19191;SDS011;9728;48.194;16.346;2023-07-13T06:20:07;1.23;;;0.80;;
19191;SDS011;9728;48.194;16.346;2023-07-13T06:25:11;1.90;;;1.00;;
19191;SDS011;9728;48.194;16.346;2023-07-13T06:30:16;1.25;;;0.80;;
19191;SDS011;9728;48.194;16.346;2023-07-13T06:35:19;2.28;;;0.77;;
19191;SDS011;9728;48.194;16.346;2023-07-13T06:40:23;1.77;;;0.80;;
19191;SDS011;9728;48.194;16.346;2023-07-13T06:45:28;0.95;;;0.77;;
19191;SDS011;9728;48.194;16.346;2023-07-13T06:50:32;1.23;;;0.70;;
19191;SDS011;9728;48.194;16.346;2023-07-13T06:55:36;4.30;;;0.98;;
19191;SDS011;9728;48.194;16.346;2023-07-13T07:00:41;3.17;;;0.90;;
19191;SDS011;9728;48.194;16.346;2023-07-13T07:05:45;2.47;;;0.73;;
19191;SDS011;9728;48.194;16.346;2023-07-13T07:10:48;0.65;;;0.65;;
19191;SDS011;9728;48.194;16.346;2023-07-13T07:15:57;1.35;;;0.68;;
19191;SDS011;9728;48.194;16.346;2023-07-13T07:21:01;0.93;;;0.85;;
19191;SDS011;9728;48.194;16.346;2023-07-13T07:26:05;1.10;;;0.75;;
19191;SDS011;9728;48.194;16.346;2023-07-13T07:31:12;1.13;;;0.60;;
19191;SDS011;9728;48.194;16.346;2023-07-13T07:36:19;1.00;;;0.93;;
19191;SDS011;9728;48.194;16.346;2023-07-13T07:41:25;0.80;;;0.70;;
19191;SDS011;9728;48.194;16.346;2023-07-13T07:46:33;0.70;;;0.70;;
19191;SDS011;9728;48.194;16.346;2023-07-13T07:51:36;0.98;;;0.70;;
19191;SDS011;9728;48.194;16.346;2023-07-13T07:56:40;1.08;;;0.75;;
19191;SDS011;9728;48.194;16.346;2023-07-13T08:02:05;1.40;;;0.73;;
19191;SDS011;9728;48.194;16.346;2023-07-13T08:07:31;0.63;;;0.50;;
19191;SDS011;9728;48.194;16.346;2023-07-13T08:12:35;3.25;;;0.90;;
19191;SDS011;9728;48.194;16.346;2023-07-13T08:17:43;2.17;;;0.60;;
19191;SDS011;9728;48.194;16.346;2023-07-13T08:22:46;0.98;;;0.65;;
19191;SDS011;9728;48.194;16.346;2023-07-13T08:27:50;1.75;;;0.65;;
19191;SDS011;9728;48.194;16.346;2023-07-13T08:32:55;1.38;;;0.80;;
19191;SDS011;9728;48.194;16.346;2023-07-13T08:37:58;1.27;;;0.73;;
19191;SDS011;9728;48.194;16.346;2023-07-13T08:43:02;0.77;;;0.77;;
19191;SDS011;9728;48.194;16.346;2023-07-13T08:48:09;1.55;;;0.82;;
19191;SDS011;9728;48.194;16.346;2023-07-13T08:53:17;1.45;;;1.00;;
19191;SDS011;9728;48.194;16.346;2023-07-13T08:58:22;0.85;;;0.82;;
19191;SDS011;9728;48.194;16.346;2023-07-13T09:03:37;1.83;;;1.10;;
19191;SDS011;9728;48.194;16.346;2023-07-13T09:08:46;1.95;;;1.40;;
19191;SDS011;9728;48.194;16.346;2023-07-13T09:14:00;1.20;;;1.10;;
19191;SDS011;9728;48.194;16.346;2023-07-13T09:19:14;1.67;;;1.13;;
19191;SDS011;9728;48.194;16.346;2023-07-13T09:24:28;1.60;;;1.30;;
19191;SDS011;9728;48.194;16.346;2023-07-13T09:29:39;1.58;;;1.20;;
19191;SDS011;9728;48.194;16.346;2023-07-13T09:34:53;1.48;;;1.20;;
19191;SDS011;9728;48.194;16.346;2023-07-13T09:39:57;1.45;;;1.33;;
19191;SDS011;9728;48.194;16.346;2023-07-13T09:45:06;2.95;;;1.65;;
19191;SDS011;9728;48.194;16.346;2023-07-13T09:50:14;3.25;;;1.73;;
19191;SDS011;9728;48.194;16.346;2023-07-13T09:55:25;1.63;;;1.50;;
19191;SDS011;9728;48.194;16.346;2023-07-13T10:00:31;2.00;;;1.30;;
19191;SDS011;9728;48.194;16.346;2023-07-13T10:05:40;1.30;;;1.20;;
19191;SDS011;9728;48.194;16.346;2023-07-13T10:10:45;1.40;;;1.30;;
19191;SDS011;9728;48.194;16.346;2023-07-13T10:15:48;1.60;;;1.50;;
19191;SDS011;9728;48.194;16.346;2023-07-13T10:20:55;2.30;;;1.60;;
19191;SDS011;9728;48.194;16.346;2023-07-13T10:26:31;1.70;;;1.60;;
19191;SDS011;9728;48.194;16.346;2023-07-13T10:31:36;1.95;;;1.70;;
19191;SDS011;9728;48.194;16.346;2023-07-13T10:36:43;2.08;;;1.42;;
19191;SDS011;9728;48.194;16.346;2023-07-13T10:41:49;1.60;;;1.50;;
19191;SDS011;9728;48.194;16.346;2023-07-13T10:46:57;1.83;;;1.42;;
19191;SDS011;9728;48.194;16.346;2023-07-13T10:52:04;1.70;;;1.55;;
19191;SDS011;9728;48.194;16.346;2023-07-13T10:57:14;1.70;;;1.60;;
19191;SDS011;9728;48.194;16.346;2023-07-13T11:02:25;2.08;;;1.30;;
19191;SDS011;9728;48.194;16.346;2023-07-13T11:07:32;1.70;;;1.60;;
19191;SDS011;9728;48.194;16.346;2023-07-13T11:12:55;1.77;;;1.60;;
19191;SDS011;9728;48.194;16.346;2023-07-13T11:18:02;2.00;;;1.35;;
19191;SDS011;9728;48.194;16.346;2023-07-13T11:23:15;1.25;;;1.15;;
19191;SDS011;9728;48.194;16.346;2023-07-13T11:28:31;1.63;;;1.30;;
19191;SDS011;9728;48.194;16.346;2023-07-13T11:33:56;1.75;;;1.60;;
19191;SDS011;9728;48.194;16.346;2023-07-13T11:39:03;1.98;;;1.30;;
19191;SDS011;9728;48.194;16.346;2023-07-13T11:44:15;1.58;;;1.48;;
19191;SDS011;9728;48.194;16.346;2023-07-13T11:49:24;2.42;;;1.40;;
19191;SDS011;9728;48.194;16.346;2023-07-13T11:54:31;1.48;;;1.38;;
19191;SDS011;9728;48.194;16.346;2023-07-13T11:59:38;1.92;;;1.50;;
19191;SDS011;9728;48.194;16.346;2023-07-13T12:04:43;1.33;;;1.20;;
19191;SDS011;9728;48.194;16.346;2023-07-13T12:09:49;2.05;;;1.40;;
19191;SDS011;9728;48.194;16.346;2023-07-13T12:14:53;1.85;;;1.40;;
19191;SDS011;9728;48.194;16.346;2023-07-13T12:19:56;1.48;;;1.33;;
19191;SDS011;9728;48.194;16.346;2023-07-13T12:25:01;3.17;;;1.42;;
19191;SDS011;9728;48.194;16.346;2023-07-13T12:30:20;2.65;;;1.25;;
19191;SDS011;9728;48.194;16.346;2023-07-13T12:35:28;1.38;;;1.27;;
19191;SDS011;9728;48.194;16.346;2023-07-13T12:40:38;1.60;;;1.40;;
19191;SDS011;9728;48.194;16.346;2023-07-13T12:45:54;2.00;;;1.80;;
19191;SDS011;9728;48.194;16.346;2023-07-13T12:51:00;1.70;;;1.20;;
19191;SDS011;9728;48.194;16.346;2023-07-13T12:56:05;1.30;;;1.20;;
19191;SDS011;9728;48.194;16.346;2023-07-13T13:01:13;1.17;;;1.08;;
19191;SDS011;9728;48.194;16.346;2023-07-13T13:06:21;1.30;;;1.20;;
19191;SDS011;9728;48.194;16.346;2023-07-13T13:11:28;1.58;;;1.48;;
19191;SDS011;9728;48.194;16.346;2023-07-13T13:16:34;2.53;;;1.10;;
19191;SDS011;9728;48.194;16.346;2023-07-13T13:21:38;1.52;;;1.20;;
19191;SDS011;9728;48.194;16.346;2023-07-13T13:26:44;1.55;;;1.23;;
19191;SDS011;9728;48.194;16.346;2023-07-13T13:31:47;1.23;;;1.13;;
19191;SDS011;9728;48.194;16.346;2023-07-13T13:36:51;1.92;;;1.30;;
19191;SDS011;9728;48.194;16.346;2023-07-13T13:42:02;1.40;;;1.30;;
19191;SDS011;9728;48.194;16.346;2023-07-13T13:47:07;1.40;;;1.30;;
19191;SDS011;9728;48.194;16.346;2023-07-13T13:52:19;1.30;;;1.20;;
19191;SDS011;9728;48.194;16.346;2023-07-13T13:57:24;1.60;;;1.50;;
19191;SDS011;9728;48.194;16.346;2023-07-13T14:02:28;2.28;;;1.40;;
19191;SDS011;9728;48.194;16.346;2023-07-13T14:07:34;1.30;;;1.20;;
19191;SDS011;9728;48.194;16.346;2023-07-13T14:12:39;1.42;;;1.05;;
19191;SDS011;9728;48.194;16.346;2023-07-13T14:17:42;1.52;;;1.20;;
19191;SDS011;9728;48.194;16.346;2023-07-13T14:22:47;1.40;;;1.30;;
19191;SDS011;9728;48.194;16.346;2023-07-13T14:27:58;1.80;;;1.15;;
19191;SDS011;9728;48.194;16.346;2023-07-13T14:33:08;1.38;;;1.27;;
19191;SDS011;9728;48.194;16.346;2023-07-13T14:38:13;2.30;;;1.23;;
19191;SDS011;9728;48.194;16.346;2023-07-13T14:43:23;1.30;;;1.20;;
19191;SDS011;9728;48.194;16.346;2023-07-13T14:48:30;1.40;;;1.30;;
19191;SDS011;9728;48.194;16.346;2023-07-13T14:53:34;1.40;;;1.30;;
19191;SDS011;9728;48.194;16.346;2023-07-13T14:58:40;1.88;;;1.30;;
19191;SDS011;9728;48.194;16.346;2023-07-13T15:03:46;1.90;;;1.20;;
19191;SDS011;9728;48.194;16.346;2023-07-13T15:08:52;1.20;;;1.10;;
19191;SDS011;9728;48.194;16.346;2023-07-13T15:13:58;1.48;;;1.27;;
19191;SDS011;9728;48.194;16.346;2023-07-13T15:19:02;1.63;;;1.38;;
19191;SDS011;9728;48.194;16.346;2023-07-13T15:24:07;1.52;;;1.23;;
19191;SDS011;9728;48.194;16.346;2023-07-13T15:29:13;1.30;;;1.20;;
19191;SDS011;9728;48.194;16.346;2023-07-13T15:34:17;1.20;;;1.08;;
19191;SDS011;9728;48.194;16.346;2023-07-13T15:39:26;2.15;;;1.50;;
19191;SDS011;9728;48.194;16.346;2023-07-13T15:44:31;2.95;;;1.30;;
19191;SDS011;9728;48.194;16.346;2023-07-13T15:49:35;2.22;;;1.95;;
19191;SDS011;9728;48.194;16.346;2023-07-13T15:54:39;2.10;;;1.50;;
19191;SDS011;9728;48.194;16.346;2023-07-13T15:59:44;1.70;;;1.20;;
19191;SDS011;9728;48.194;16.346;2023-07-13T16:04:48;1.50;;;1.40;;
19191;SDS011;9728;48.194;16.346;2023-07-13T16:09:51;1.83;;;1.50;;
19191;SDS011;9728;48.194;16.346;2023-07-13T16:14:56;2.60;;;2.00;;
19191;SDS011;9728;48.194;16.346;2023-07-13T16:20:00;2.42;;;2.03;;
19191;SDS011;9728;48.194;16.346;2023-07-13T16:25:09;1.67;;;1.45;;
19191;SDS011;9728;48.194;16.346;2023-07-13T16:30:21;1.40;;;1.20;;
19191;SDS011;9728;48.194;16.346;2023-07-13T16:35:28;1.35;;;1.13;;
19191;SDS011;9728;48.194;16.346;2023-07-13T16:40:36;1.42;;;1.33;;
19191;SDS011;9728;48.194;16.346;2023-07-13T16:45:41;2.67;;;1.63;;
19191;SDS011;9728;48.194;16.346;2023-07-13T16:50:50;1.73;;;1.20;;
19191;SDS011;9728;48.194;16.346;2023-07-13T16:55:57;1.88;;;1.20;;
19191;SDS011;9728;48.194;16.346;2023-07-13T17:01:03;2.42;;;1.40;;
19191;SDS011;9728;48.194;16.346;2023-07-13T17:06:19;2.53;;;2.20;;
19191;SDS011;9728;48.194;16.346;2023-07-13T17:11:26;1.92;;;1.50;;
19191;SDS011;9728;48.194;16.346;2023-07-13T17:16:34;1.88;;;1.52;;
19191;SDS011;9728;48.194;16.346;2023-07-13T17:21:38;2.65;;;1.40;;
19191;SDS011;9728;48.194;16.346;2023-07-13T17:26:41;1.42;;;1.20;;
19191;SDS011;9728;48.194;16.346;2023-07-13T17:31:47;2.78;;;1.60;;
19191;SDS011;9728;48.194;16.346;2023-07-13T17:36:53;2.88;;;1.55;;
19191;SDS011;9728;48.194;16.346;2023-07-13T17:42:00;2.25;;;2.00;;
19191;SDS011;9728;48.194;16.346;2023-07-13T17:47:11;3.40;;;2.13;;
19191;SDS011;9728;48.194;16.346;2023-07-13T17:52:27;2.35;;;1.45;;
19191;SDS011;9728;48.194;16.346;2023-07-13T17:57:32;1.05;;;0.93;;
19191;SDS011;9728;48.194;16.346;2023-07-13T18:02:38;2.00;;;1.58;;
19191;SDS011;9728;48.194;16.346;2023-07-13T18:07:45;2.20;;;1.55;;
19191;SDS011;9728;48.194;16.346;2023-07-13T18:12:50;2.63;;;2.20;;
19191;SDS011;9728;48.194;16.346;2023-07-13T18:17:57;2.22;;;1.80;;
19191;SDS011;9728;48.194;16.346;2023-07-13T18:23:08;2.28;;;1.30;;
19191;SDS011;9728;48.194;16.346;2023-07-13T18:28:19;1.23;;;0.90;;
19191;SDS011;9728;48.194;16.346;2023-07-13T18:33:27;1.30;;;1.13;;
19191;SDS011;9728;48.194;16.346;2023-07-13T18:38:36;1.60;;;1.17;;
19191;SDS011;9728;48.194;16.346;2023-07-13T18:43:40;1.20;;;1.10;;
19191;SDS011;9728;48.194;16.346;2023-07-13T18:48:49;4.88;;;3.15;;
19191;SDS011;9728;48.194;16.346;2023-07-13T18:53:54;2.60;;;2.20;;
19191;SDS011;9728;48.194;16.346;2023-07-13T18:59:00;1.52;;;1.40;;
19191;SDS011;9728;48.194;16.346;2023-07-13T19:04:31;1.80;;;1.05;;
19191;SDS011;9728;48.194;16.346;2023-07-13T19:09:35;2.00;;;1.23;;
19191;SDS011;9728;48.194;16.346;2023-07-13T19:14:40;1.70;;;1.20;;
19191;SDS011;9728;48.194;16.346;2023-07-13T19:19:47;1.10;;;1.00;;
19191;SDS011;9728;48.194;16.346;2023-07-13T19:24:53;1.60;;;1.20;;
19191;SDS011;9728;48.194;16.346;2023-07-13T19:29:58;2.13;;;1.50;;
19191;SDS011;9728;48.194;16.346;2023-07-13T19:35:05;1.73;;;1.40;;
19191;SDS011;9728;48.194;16.346;2023-07-13T19:40:15;2.33;;;1.90;;
19191;SDS011;9728;48.194;16.346;2023-07-13T19:45:23;3.25;;;1.73;;
19191;SDS011;9728;48.194;16.346;2023-07-13T19:50:31;2.05;;;1.33;;
19191;SDS011;9728;48.194;16.346;2023-07-13T19:55:36;2.17;;;1.20;;
19191;SDS011;9728;48.194;16.346;2023-07-13T20:00:42;1.38;;;1.27;;
19191;SDS011;9728;48.194;16.346;2023-07-13T20:05:48;2.05;;;1.52;;
19191;SDS011;9728;48.194;16.346;2023-07-13T20:10:54;1.30;;;1.10;;
19191;SDS011;9728;48.194;16.346;2023-07-13T20:16:01;3.03;;;1.90;;
19191;SDS011;9728;48.194;16.346;2023-07-13T20:21:08;2.08;;;1.20;;
19191;SDS011;9728;48.194;16.346;2023-07-13T20:26:15;1.60;;;1.50;;
19191;SDS011;9728;48.194;16.346;2023-07-13T20:31:22;2.03;;;1.40;;
19191;SDS011;9728;48.194;16.346;2023-07-13T20:36:28;1.83;;;1.20;;
19191;SDS011;9728;48.194;16.346;2023-07-13T20:41:32;1.30;;;1.20;;
19191;SDS011;9728;48.194;16.346;2023-07-13T20:46:36;1.77;;;1.25;;
19191;SDS011;9728;48.194;16.346;2023-07-13T20:51:42;1.15;;;1.00;;
19191;SDS011;9728;48.194;16.346;2023-07-13T20:56:52;1.63;;;1.00;;
19191;SDS011;9728;48.194;16.346;2023-07-13T21:01:58;1.88;;;1.20;;
19191;SDS011;9728;48.194;16.346;2023-07-13T21:07:03;1.45;;;1.15;;
19191;SDS011;9728;48.194;16.346;2023-07-13T21:12:07;1.58;;;1.33;;
19191;SDS011;9728;48.194;16.346;2023-07-13T21:17:11;1.25;;;1.15;;
19191;SDS011;9728;48.194;16.346;2023-07-13T21:22:16;3.13;;;1.10;;
19191;SDS011;9728;48.194;16.346;2023-07-13T21:27:20;1.13;;;1.00;;
19191;SDS011;9728;48.194;16.346;2023-07-13T21:32:23;1.80;;;1.30;;
19191;SDS011;9728;48.194;16.346;2023-07-13T21:37:28;2.22;;;1.40;;
19191;SDS011;9728;48.194;16.346;2023-07-13T21:42:33;1.05;;;0.95;;
19191;SDS011;9728;48.194;16.346;2023-07-13T21:47:36;2.13;;;0.95;;
19191;SDS011;9728;48.194;16.346;2023-07-13T21:52:41;1.50;;;1.25;;
19191;SDS011;9728;48.194;16.346;2023-07-13T21:57:46;1.10;;;1.00;;
19191;SDS011;9728;48.194;16.346;2023-07-13T22:02:55;1.40;;;1.13;;
19191;SDS011;9728;48.194;16.346;2023-07-13T22:08:04;1.20;;;1.08;;
19191;SDS011;9728;48.194;16.346;2023-07-13T22:13:11;1.10;;;1.00;;
19191;SDS011;9728;48.194;16.346;2023-07-13T22:18:15;1.38;;;1.20;;
19191;SDS011;9728;48.194;16.346;2023-07-13T22:23:42;1.00;;;0.90;;
19191;SDS011;9728;48.194;16.346;2023-07-13T22:28:47;0.90;;;0.90;;
19191;SDS011;9728;48.194;16.346;2023-07-13T22:33:51;1.80;;;1.10;;
19191;SDS011;9728;48.194;16.346;2023-07-13T22:38:56;1.42;;;1.27;;
19191;SDS011;9728;48.194;16.346;2023-07-13T22:43:59;1.15;;;0.85;;
19191;SDS011;9728;48.194;16.346;2023-07-13T22:49:15;1.40;;;1.20;;
19191;SDS011;9728;48.194;16.346;2023-07-13T22:54:23;2.28;;;1.10;;
19191;SDS011;9728;48.194;16.346;2023-07-13T22:59:27;1.00;;;0.90;;
19191;SDS011;9728;48.194;16.346;2023-07-13T23:04:32;1.30;;;0.90;;
19191;SDS011;9728;48.194;16.346;2023-07-13T23:09:39;2.03;;;0.85;;
19191;SDS011;9728;48.194;16.346;2023-07-13T23:15:04;1.00;;;0.90;;
19191;SDS011;9728;48.194;16.346;2023-07-13T23:20:14;1.60;;;0.95;;
19191;SDS011;9728;48.194;16.346;2023-07-13T23:25:25;0.90;;;0.85;;
19191;SDS011;9728;48.194;16.346;2023-07-13T23:30:31;1.48;;;1.00;;
19191;SDS011;9728;48.194;16.346;2023-07-13T23:35:35;1.13;;;1.00;;
19191;SDS011;9728;48.194;16.346;2023-07-13T23:40:39;1.35;;;1.10;;
19191;SDS011;9728;48.194;16.346;2023-07-13T23:45:43;1.40;;;0.85;;
19191;SDS011;9728;48.194;16.346;2023-07-13T23:50:47;1.58;;;1.10;;
19191;SDS011;9728;48.194;16.346;2023-07-13T23:55:54;1.48;;;0.95;;
